Time;durP1;ratioP1;P1;durP2;ratioP2;P2;SDS_P1;SDS_P2;PMS_P1;PMS_P2;Temp;Humidity;BMP_temperature;BMP_pressure;BME280_temperature;BME280_humidity;BME280_pressure;Samples;Min_cycle;Max_cycle;Signal;HPM_P1;HPM_P2
2022/05/07 00:02:34;;;;;;;27.50;20.85;;;14.30;72.40;;;10.37;88.62;96047.56;5037845;28;20036;-48
2022/05/07 00:05:03;;;;;;;28.67;20.92;;;14.30;72.50;;;10.38;88.92;96048.34;5038311;28;20040;-48
2022/05/07 00:07:43;;;;;;;32.42;20.77;;;14.30;72.30;;;10.41;88.81;96048.66;5055645;28;20033;-49
2022/05/07 00:10:09;;;;;;;26.50;19.88;;;14.40;72.50;;;10.45;88.39;96050.81;5055817;28;20079;-49
2022/05/07 00:12:35;;;;;;;28.63;20.40;;;14.40;72.20;;;10.47;88.38;96049.50;5055862;28;20438;-48
2022/05/07 00:15:01;;;;;;;28.35;20.40;;;14.40;72.20;;;10.49;88.42;96046.59;5055394;28;20048;-49
2022/05/07 00:20:13;;;;;;;26.42;19.98;;;14.40;72.20;;;10.53;88.64;96039.69;5055519;28;20091;-49
2022/05/07 00:22:42;;;;;;;30.08;19.75;;;14.50;72.10;;;10.54;88.41;96047.44;5056021;28;20452;-50
2022/05/07 00:25:08;;;;;;;27.90;20.38;;;14.50;72.20;;;10.56;88.44;96047.16;5055535;28;20384;-53
2022/05/07 00:27:33;;;;;;;27.23;20.27;;;14.50;72.20;;;10.59;88.19;96038.69;5037545;28;20056;-53
2022/05/07 00:30:12;;;;;;;29.70;20.02;;;14.50;72.20;;;10.60;88.16;96041.09;5034170;28;20047;-53
2022/05/07 00:32:38;;;;;;;27.80;19.55;;;14.60;72.40;;;10.62;88.34;96033.66;5035396;28;20056;-50
2022/05/07 00:35:04;;;;;;;28.20;20.35;;;14.60;72.30;;;10.62;88.08;96027.50;5035440;28;20064;-50
2022/05/07 00:37:33;;;;;;;28.40;21.15;;;14.60;72.20;;;10.59;88.04;96028.03;5035253;28;20029;-53
2022/05/07 00:39:59;;;;;;;26.42;20.13;;;14.60;72.30;;;10.57;88.03;96025.63;5050655;28;20537;-51
2022/05/07 00:42:24;;;;;;;25.70;19.73;;;14.60;72.30;;;10.56;88.32;96021.38;5035275;28;20029;-50
2022/05/07 00:44:53;;;;;;;28.83;21.63;;;14.60;72.30;;;10.53;87.96;96021.88;5034170;28;20099;-51
2022/05/07 00:47:27;;;;;;;29.08;20.73;;;14.60;72.30;;;10.55;87.90;96018.94;5034986;28;20029;-53
2022/05/07 00:51:33;;;;;;;31.85;20.90;;;14.60;72.30;;;10.51;88.07;96015.97;5037655;28;20051;-50
2022/05/07 00:52:43;;;;;;;30.02;20.65;;;14.50;72.20;;;10.48;88.27;96019.16;5040048;28;20025;-50
2022/05/07 00:55:14;;;;;;;28.02;20.35;;;14.50;72.20;;;10.50;88.33;96014.38;5054928;28;20060;-51
2022/05/07 00:57:43;;;;;;;29.10;21.88;;;14.50;72.20;;;10.49;88.24;96007.44;5036836;28;20031;-53
2022/05/07 01:00:10;;;;;;;33.13;21.25;;;14.50;72.30;;;10.48;88.46;96013.81;5054839;28;20427;-52
2022/05/07 01:02:37;;;;;;;29.55;21.60;;;14.50;72.30;;;10.49;88.36;96003.97;5054864;28;20057;-52
2022/05/07 01:05:08;;;;;;;31.95;20.95;;;14.50;72.40;;;10.47;88.42;96009.56;5036955;28;20025;-49
2022/05/07 01:07:34;;;;;;;31.20;21.63;;;14.50;72.40;;;10.47;88.16;96006.91;5054268;28;20036;-52
2022/05/07 01:10:04;;;;;;;29.83;20.42;;;14.50;72.40;;;10.47;88.18;96008.75;5036474;28;20043;-51
2022/05/07 01:12:31;;;;;;;32.33;22.83;;;14.50;72.40;;;10.46;88.05;96004.47;5036767;28;20021;-49
2022/05/07 01:14:58;;;;;;;30.55;21.58;;;14.40;72.40;;;10.43;88.01;96008.44;5036757;28;20021;-51
2022/05/07 01:17:25;;;;;;;33.00;22.55;;;14.50;72.40;;;10.43;87.85;96008.44;5036785;28;20071;-53
2022/05/07 01:19:54;;;;;;;31.33;21.33;;;14.40;72.30;;;10.36;88.37;96000.66;5054460;28;20029;-52
2022/05/07 01:22:21;;;;;;;34.33;21.27;;;14.40;72.40;;;10.39;88.24;96005.47;5054454;28;20478;-53
2022/05/07 01:24:47;;;;;;;30.95;21.55;;;14.40;72.30;;;10.38;87.87;95998.56;5035206;28;20087;-52
2022/05/07 01:27:13;;;;;;;30.38;21.05;;;14.40;72.30;;;10.36;88.01;96003.31;5036613;28;20059;-48
2022/05/07 01:29:51;;;;;;;31.35;22.45;;;14.40;72.30;;;10.35;87.81;96000.94;5054204;28;20029;-52
2022/05/07 01:32:25;;;;;;;33.17;20.92;;;14.40;72.40;;;10.30;87.69;95999.00;5054179;28;20043;-49
2022/05/07 01:34:57;;;;;;;34.05;21.92;;;14.40;72.30;;;10.29;87.73;96004.59;5054158;28;20036;-51
2022/05/07 01:37:25;;;;;;;36.97;23.15;;;14.40;72.40;;;10.25;87.64;95990.97;5053915;28;20458;-54
2022/05/07 01:40:01;;;;;;;36.95;23.60;;;14.40;72.30;;;10.25;87.54;95996.28;5036325;28;20060;-53
2022/05/07 01:42:27;;;;;;;34.53;23.63;;;14.40;72.50;;;10.24;87.56;95997.31;5053869;28;20025;-55
2022/05/07 01:44:58;;;;;;;31.17;21.23;;;14.30;72.30;;;10.23;88.02;95994.91;5036654;28;20116;-53
2022/05/07 01:50:11;;;;;;;35.33;22.42;;;14.30;72.30;;;10.20;88.20;95991.69;5053932;28;20043;-49
2022/05/07 01:52:37;;;;;;;41.33;23.80;;;14.30;72.30;;;10.21;88.02;95992.50;5053788;28;20100;-55
2022/05/07 01:55:06;;;;;;;39.08;24.58;;;14.30;72.40;;;10.23;88.46;95992.25;5053709;28;20037;-53
2022/05/07 01:57:31;;;;;;;39.90;24.60;;;14.30;72.50;;;10.20;88.66;95997.03;5054227;28;20033;-55
2022/05/07 02:00:04;;;;;;;41.95;25.77;;;14.30;72.50;;;10.20;88.79;95996.22;5036505;28;20036;-52
2022/05/07 02:02:30;;;;;;;44.35;26.88;;;14.30;72.70;;;10.19;89.00;95989.31;5019711;28;20029;-50
2022/05/07 02:04:55;;;;;;;40.80;24.30;;;14.30;73.40;;;10.20;88.96;95989.03;5053786;28;20213;-50
2022/05/07 02:07:21;;;;;;;38.15;25.02;;;14.30;72.80;;;10.22;88.94;95983.47;5073581;22;20049;-56
2022/05/07 02:09:53;;;;;;;37.20;24.27;;;14.20;72.80;;;10.21;88.64;95981.84;5074038;28;20184;-59
2022/05/07 02:12:25;;;;;;;40.17;24.50;;;14.30;73.60;;;10.23;88.61;95989.59;5047486;28;20044;-59
2022/05/07 02:14:54;;;;;;;40.72;24.73;;;14.30;72.90;;;10.20;88.72;95978.38;5055828;28;20427;-59
2022/05/07 02:17:22;;;;;;;39.17;23.63;;;14.30;72.80;;;10.24;88.62;95983.22;5082653;28;20028;-59
2022/05/07 02:19:48;;;;;;;41.83;22.98;;;14.30;72.80;;;10.24;88.69;95981.34;5073463;28;20483;-59
2022/05/07 02:22:16;;;;;;;35.58;21.83;;;14.30;72.80;;;10.24;88.50;95972.56;5072119;28;20031;-59
2022/05/07 02:24:42;;;;;;;34.78;22.48;;;14.30;72.80;;;10.20;88.58;95966.94;5073409;28;20417;-59
2022/05/07 02:27:08;;;;;;;37.78;24.02;;;14.30;72.80;;;10.16;89.21;95963.19;5068715;28;20028;-59
2022/05/07 02:29:40;;;;;;;41.78;23.45;;;14.40;72.80;;;10.09;88.92;95955.41;5055416;28;20024;-59
2022/05/07 02:32:06;;;;;;;35.20;23.00;;;14.30;72.80;;;10.21;89.15;95981.84;5091712;28;20029;-59
2022/05/07 02:34:34;;;;;;;39.17;22.38;;;14.30;72.80;;;10.16;89.16;95971.16;5063958;28;20537;-57
2022/05/07 02:37:01;;;;;;;38.25;23.08;;;14.30;72.80;;;10.14;88.96;95975.94;5091525;28;20058;-59
2022/05/07 02:39:31;;;;;;;34.92;22.33;;;14.30;72.80;;;10.13;89.04;95969.81;5063617;28;20028;-59
2022/05/07 02:44:41;;;;;;;37.00;23.67;;;14.30;72.80;;;10.16;88.89;95977.28;5088318;28;20434;-59
2022/05/07 02:47:12;;;;;;;39.33;23.52;;;14.30;72.80;;;10.14;88.75;95982.06;5066893;28;20033;-59
2022/05/07 02:49:44;;;;;;;36.17;23.75;;;14.30;72.90;;;10.14;88.88;95975.94;5057325;28;20029;-58
2022/05/07 02:52:13;;;;;;;36.65;24.20;;;14.20;73.00;;;10.08;88.74;95975.06;5054955;28;20063;-59
2022/05/07 02:54:39;;;;;;;42.67;25.30;;;14.20;72.90;;;10.09;88.84;95973.22;5061593;28;20024;-58
2022/05/07 02:57:11;;;;;;;42.15;25.20;;;14.20;72.90;;;10.08;88.75;95979.59;5064784;28;20062;-57
2022/05/07 02:59:38;;;;;;;43.28;25.95;;;14.20;73.00;;;10.02;88.99;95970.75;5090410;28;20024;-57
2022/05/07 03:02:10;;;;;;;44.65;25.92;;;14.20;72.90;;;10.04;88.97;95976.63;5047485;28;20479;-59
2022/05/07 03:04:42;;;;;;;44.95;27.48;;;14.20;73.00;;;10.01;89.04;95971.81;5091335;28;20028;-59
2022/05/07 03:07:10;;;;;;;44.28;26.73;;;14.20;73.10;;;9.98;89.34;95961.66;5058812;28;20491;-58
2022/05/07 03:09:36;;;;;;;47.75;27.58;;;14.10;73.00;;;10.03;89.59;95964.41;5061606;28;20025;-59
2022/05/07 03:12:05;;;;;;;43.60;26.13;;;14.10;73.00;;;10.04;89.57;95965.19;5034732;28;20037;-59
2022/05/07 03:14:32;;;;;;;47.60;28.90;;;14.10;73.10;;;10.01;89.75;95963.84;5034729;28;20024;-59
2022/05/07 03:16:59;;;;;;;48.10;28.73;;;14.10;73.20;;;9.99;89.96;95959.81;5052397;28;20518;-59
2022/05/07 03:19:28;;;;;;;53.38;28.88;;;14.10;73.30;;;9.93;90.24;95954.47;5051499;28;20088;-58
2022/05/07 03:21:53;;;;;;;52.45;28.75;;;14.00;73.50;;;9.94;90.13;95963.25;5051407;28;20391;-59
2022/05/07 03:24:19;;;;;;;46.05;28.58;;;14.00;73.50;;;9.94;90.13;95955.25;5064575;28;20036;-59
2022/05/07 03:26:45;;;;;;;46.78;26.77;;;14.00;73.60;;;9.92;90.16;95957.34;5052268;28;20025;-59
2022/05/07 03:29:13;;;;;;;45.03;27.25;;;14.00;73.60;;;9.88;90.34;95957.06;5051276;28;20029;-59
2022/05/07 03:31:41;;;;;;;41.00;26.13;;;13.90;73.70;;;9.89;90.20;95957.84;5052388;28;20103;-59
2022/05/07 03:34:08;;;;;;;45.65;27.63;;;13.90;73.80;;;9.79;90.00;95949.78;5050964;28;20033;-57
2022/05/07 03:36:34;;;;;;;48.35;28.75;;;13.90;73.80;;;9.77;90.14;95951.88;5051038;28;20022;-56
2022/05/07 03:39:00;;;;;;;54.83;29.00;;;13.80;73.80;;;9.78;89.88;95959.63;5048210;28;20029;-59
2022/05/07 03:41:26;;;;;;;51.55;28.75;;;13.80;73.80;;;9.70;90.13;95946.75;5062469;28;20032;-59
2022/05/07 03:44:11;;;;;;;51.88;29.95;;;13.80;73.90;;;9.68;89.81;95954.16;5063414;28;20029;-58
2022/05/07 03:46:37;;;;;;;55.70;30.35;;;13.70;74.00;;;9.64;90.18;95955.72;5050945;28;20032;-59
2022/05/07 03:49:03;;;;;;;51.25;28.58;;;13.70;73.90;;;9.63;90.04;95962.91;5067554;28;20100;-58
2022/05/07 03:51:29;;;;;;;51.85;29.90;;;13.70;74.00;;;9.61;90.13;95958.88;5049858;28;20056;-56
2022/05/07 03:53:54;;;;;;;52.53;30.05;;;13.60;74.00;;;9.59;90.38;95963.63;5061250;28;20618;-57
2022/05/07 03:56:23;;;;;;;54.35;30.33;;;13.60;74.00;;;9.58;90.05;95962.84;5058530;28;20043;-55
2022/05/07 03:58:55;;;;;;;53.67;31.42;;;13.60;74.10;;;9.58;90.17;95960.19;5061487;28;20083;-59
2022/05/07 04:01:20;;;;;;;55.58;30.83;;;13.60;74.10;;;9.57;90.46;95958.56;5068973;28;20059;-58
2022/05/07 04:03:52;;;;;;;57.55;30.40;;;13.60;74.10;;;9.56;90.59;95956.97;5072118;28;20498;-58
2022/05/07 04:06:21;;;;;;;50.58;29.17;;;13.60;74.20;;;9.56;90.74;95962.28;5070769;28;20516;-59
2022/05/07 04:08:55;;;;;;;56.53;30.88;;;13.60;74.30;;;9.54;90.82;95960.94;5072253;28;20036;-58
2022/05/07 04:11:24;;;;;;;48.08;27.15;;;13.60;74.40;;;9.54;90.98;95966.25;5070916;28;20112;-59
2022/05/07 04:13:51;;;;;;;52.33;28.75;;;13.60;74.40;;;9.54;91.11;95968.91;5070888;28;20050;-57
2022/05/07 04:16:17;;;;;;;44.67;27.10;;;13.60;74.50;;;9.57;91.30;95968.41;5071845;28;20031;-57
2022/05/07 04:18:46;;;;;;;42.72;24.75;;;13.60;74.50;;;9.57;90.94;95969.22;5071918;28;20024;-56
2022/05/07 04:21:12;;;;;;;40.25;25.23;;;13.70;74.70;;;9.58;90.87;95964.69;5070719;28;20024;-57
2022/05/07 04:23:38;;;;;;;39.20;25.38;;;13.70;74.70;;;9.59;90.55;95975.09;5071999;28;20032;-58
2022/05/07 04:26:03;;;;;;;32.42;22.77;;;13.70;74.70;;;9.62;90.63;95971.13;5071736;28;20032;-59
2022/05/07 04:28:35;;;;;;;32.15;21.58;;;13.70;74.60;;;9.60;90.62;95965.25;5053626;28;20029;-59
2022/05/07 04:31:01;;;;;;;27.50;20.45;;;13.80;74.70;;;9.60;90.50;95971.38;5054639;28;20024;-59
2022/05/07 04:33:32;;;;;;;33.70;20.88;;;13.80;74.70;;;9.57;90.05;95963.91;5075450;28;20092;-59
2022/05/07 04:35:58;;;;;;;28.67;20.52;;;13.80;74.60;;;9.64;90.19;95972.47;5074234;28;20082;-59
2022/05/07 04:38:24;;;;;;;29.13;19.88;;;13.80;75.30;;;9.62;89.77;95971.13;5075521;28;20032;-59
2022/05/07 04:40:50;;;;;;;28.05;19.05;;;13.90;74.50;;;9.67;89.60;95969.31;5075363;28;20033;-59
2022/05/07 04:43:24;;;;;;;25.77;18.17;;;13.90;74.50;;;9.73;89.38;95967.53;5074210;28;20031;-56
2022/05/07 04:45:50;;;;;;;26.00;18.98;;;13.90;74.40;;;9.76;89.39;95974.22;5074011;28;20033;-59
2022/05/07 04:48:16;;;;;;;29.13;18.88;;;13.90;74.30;;;9.81;89.38;95975.09;5074057;28;20112;-59
2022/05/07 04:50:42;;;;;;;28.77;19.85;;;14.00;74.20;;;9.82;89.25;95973.22;5056920;28;20033;-58
2022/05/07 04:53:07;;;;;;;27.13;18.88;;;14.00;74.10;;;9.89;89.41;95977.28;5055071;28;20541;-58
2022/05/07 04:55:33;;;;;;;26.95;19.23;;;14.10;74.10;;;9.95;89.35;95973.63;5065157;28;20039;-57
2022/05/07 04:57:59;;;;;;;28.45;19.63;;;14.10;74.00;;;10.00;89.13;95974.72;5069595;28;20534;-58
2022/05/07 05:00:30;;;;;;;28.15;20.52;;;14.20;74.00;;;10.02;89.06;95969.94;5054870;28;20021;-59
2022/05/07 05:02:56;;;;;;;26.45;18.83;;;14.20;73.90;;;10.07;89.05;95978.81;5037514;28;20425;-56
2022/05/07 05:05:29;;;;;;;31.25;20.02;;;14.30;73.80;;;10.10;89.00;95982.81;5055073;28;20032;-58
2022/05/07 05:07:55;;;;;;;;;;;14.40;73.80;;;10.12;88.57;95981.53;5078362;28;20503;-59
2022/05/07 05:10:22;;;;;;;26.45;16.90;;;14.40;73.40;;;10.15;88.22;95980.19;5076982;28;19999;-59
2022/05/07 05:12:48;;;;;;;22.52;16.10;;;14.50;73.30;;;10.11;87.37;95982.56;5095034;28;20028;-57
2022/05/07 05:15:17;;;;;;;19.35;14.98;;;14.50;73.10;;;10.11;86.98;95989.75;5094854;28;20085;-59
2022/05/07 05:17:42;;;;;;;25.92;16.05;;;14.60;73.00;;;10.16;86.69;95987.13;5070292;28;20039;-59
2022/05/07 05:20:11;;;;;;;21.02;15.60;;;14.60;72.80;;;10.22;86.52;95990.66;5056818;28;20025;-59
2022/05/07 05:22:37;;;;;;;20.88;14.40;;;14.60;72.60;;;10.22;85.88;95996.00;5060455;28;20099;-59
2022/05/07 05:25:06;;;;;;;19.15;14.40;;;14.60;72.50;;;10.22;85.36;95996.00;5065709;28;20120;-59
2022/05/07 05:27:32;;;;;;;19.63;13.57;;;14.70;72.30;;;10.24;85.24;96004.50;5000704;28;20048;-57
2022/05/07 05:29:58;;;;;;;16.65;13.15;;;14.70;72.00;;;10.23;85.27;96001.03;5052944;28;20040;-59
2022/05/07 05:32:24;;;;;;;20.63;13.80;;;14.70;71.90;;;10.24;85.13;96005.31;5083474;28;20024;-57
2022/05/07 05:34:53;;;;;;;17.10;12.98;;;14.70;71.60;;;10.27;84.59;96004.84;5065594;28;20027;-56
2022/05/07 05:37:19;;;;;;;19.23;12.40;;;14.80;71.50;;;10.30;83.90;96007.00;5072951;28;20036;-57
2022/05/07 05:39:46;;;;;;;19.35;12.15;;;14.80;71.20;;;10.31;83.86;96011.28;5070690;28;20052;-57
2022/05/07 05:42:13;;;;;;;15.65;11.40;;;14.90;71.00;;;10.33;83.02;96009.16;5055382;28;20488;-58
2022/05/07 05:44:40;;;;;;;17.20;11.70;;;15.00;70.70;;;10.37;82.51;96009.44;5053792;28;20055;-55
2022/05/07 05:47:09;;;;;;;15.65;10.93;;;15.00;70.40;;;10.35;82.66;96011.56;5056068;28;20039;-54
2022/05/07 05:49:35;;;;;;;16.95;11.55;;;15.10;70.10;;;10.43;82.13;96013.75;5057896;28;20040;-54
2022/05/07 05:52:05;;;;;;;14.88;11.60;;;15.10;69.80;;;10.55;82.19;96008.28;5094156;28;20054;-57
2022/05/07 05:54:31;;;;;;;16.80;10.52;;;15.20;69.70;;;10.63;81.55;96005.16;5094091;28;20028;-57
2022/05/07 05:57:18;;;;;;;16.05;10.68;;;15.30;69.30;;;10.81;81.03;96004.78;5055739;28;20083;-59
2022/05/07 05:59:44;;;;;;;13.57;9.65;;;15.50;69.20;;;10.92;80.08;96010.19;5077209;28;20028;-58
2022/05/07 06:02:10;;;;;;;16.33;9.75;;;15.60;68.90;;;11.08;79.60;96009.22;5055815;28;20063;-59
2022/05/07 06:04:37;;;;;;;15.70;9.65;;;15.80;68.60;;;11.24;78.93;96008.22;5072537;28;20016;-58
2022/05/07 06:07:03;;;;;;;16.30;10.07;;;15.90;68.30;;;11.44;78.58;96009.41;5072661;28;20479;-57
2022/05/07 06:09:29;;;;;;;11.05;9.10;;;16.20;68.00;;;11.58;77.13;96015.88;5073470;28;20397;-58
2022/05/07 06:11:59;;;;;;;13.98;8.82;;;16.40;67.40;;;11.76;76.30;96015.44;5072354;28;20028;-58
2022/05/07 06:14:34;;;;;;;12.23;8.65;;;16.60;66.80;;;11.98;75.87;96015.28;5073170;28;20025;-57
2022/05/07 06:17:08;;;;;;;13.93;8.80;;;16.90;67.00;;;12.27;74.06;96004.91;5080582;28;20020;-59
2022/05/07 06:19:34;;;;;;;14.13;9.32;;;17.20;65.70;;;12.40;73.67;96013.50;5057270;28;20119;-59
2022/05/07 06:22:06;;;;;;;12.38;8.70;;;17.30;65.30;;;12.46;72.23;96007.88;5073322;28;20056;-58
2022/05/07 06:27:37;;;;;;;14.38;8.50;;;17.60;63.60;;;12.40;72.01;96003.59;5078192;28;20039;-58
2022/05/07 06:30:07;;;;;;;11.55;8.77;;;17.70;62.70;;;12.32;72.48;96001.47;5071767;28;20028;-59
2022/05/07 06:32:42;;;;;;;13.63;8.05;;;17.60;62.30;;;12.35;72.57;96008.16;5073785;28;20081;-59
2022/05/07 06:35:14;;;;;;;13.50;8.80;;;17.60;62.20;;;12.39;72.95;96018.03;5056315;28;20034;-58
2022/05/07 06:37:40;;;;;;;13.27;8.70;;;17.40;62.10;;;12.40;73.61;96024.97;5076861;28;20031;-59
2022/05/07 06:40:12;;;;;;;10.27;8.48;;;17.40;62.50;;;12.43;73.90;96007.63;5063942;28;20074;-57
2022/05/07 06:42:39;;;;;;;16.85;9.23;;;17.40;62.50;;;12.38;73.18;96011.09;5074598;28;20024;-56
2022/05/07 06:45:12;;;;;;;13.25;8.82;;;17.30;62.40;;;12.36;73.22;96017.75;5086346;28;20417;-59
2022/05/07 06:47:38;;;;;;;12.35;8.88;;;17.30;62.20;;;12.37;73.26;96020.16;5093017;28;20115;-59
2022/05/07 06:50:05;;;;;;;10.88;8.45;;;17.20;62.30;;;12.34;73.26;96022.56;5061657;28;20107;-59
2022/05/07 06:52:45;;;;;;;12.57;8.88;;;17.10;62.20;;;12.30;73.42;96019.63;5075102;28;20543;-58
2022/05/07 06:55:15;;;;;;;17.58;9.43;;;17.10;62.10;;;12.20;73.35;96028.41;5074557;28;20475;-57
2022/05/07 06:57:42;;;;;;;15.98;9.32;;;17.00;62.10;;;12.06;73.52;96024.63;5075031;28;20032;-54
2022/05/07 07:00:15;;;;;;;15.43;8.80;;;16.90;62.00;;;11.91;74.66;96020.06;5058128;28;20120;-57
2022/05/07 07:02:41;;;;;;;13.32;9.02;;;16.90;61.90;;;11.87;75.84;96015.50;5079610;28;20099;-56
2022/05/07 07:05:16;;;;;;;12.82;9.77;;;16.70;62.10;;;11.78;76.75;96020.50;5072627;28;20036;-56
2022/05/07 07:07:44;;;;;;;20.15;12.63;;;16.60;62.40;;;11.64;77.74;96022.06;5072255;28;20052;-57
2022/05/07 07:10:13;;;;;;;14.43;9.95;;;16.40;62.70;;;11.58;77.81;96015.88;5062343;28;20024;-58
2022/05/07 07:12:45;;;;;;;12.82;10.35;;;16.30;63.00;;;11.60;77.96;96021.78;5077776;28;20485;-56
2022/05/07 07:15:17;;;;;;;22.58;11.65;;;16.30;63.40;;;11.58;78.38;96023.88;5063555;28;20032;-59
2022/05/07 07:17:44;;;;;;;13.50;10.97;;;16.20;63.60;;;11.54;77.79;96023.63;5071867;28;20495;-59
2022/05/07 07:20:10;;;;;;;13.82;10.90;;;16.20;63.60;;;11.62;77.84;96035.66;5071114;28;20494;-57
2022/05/07 07:22:36;;;;;;;12.30;10.32;;;16.30;63.70;;;11.61;77.88;96023.38;5072441;28;20383;-58
2022/05/07 07:25:02;;;;;;;12.70;10.13;;;16.40;63.60;;;11.71;77.38;96027.94;5072374;28;20028;-57
2022/05/07 07:27:31;;;;;;;14.35;10.45;;;16.60;63.40;;;11.80;76.97;96027.19;5070993;28;20032;-58
2022/05/07 07:30:00;;;;;;;13.02;10.30;;;16.80;63.20;;;11.95;76.38;96025.69;5072324;28;20503;-58
2022/05/07 07:32:26;;;;;;;16.23;10.60;;;16.90;63.00;;;12.06;76.42;96026.50;5054155;28;20040;-58
2022/05/07 07:34:55;;;;;;;14.57;10.88;;;17.10;62.70;;;12.15;76.29;96039.06;5054077;28;20383;-57
2022/05/07 07:37:21;;;;;;;14.15;10.57;;;17.20;62.40;;;12.23;75.84;96024.41;5072075;28;20511;-59
2022/05/07 07:39:49;;;;;;;16.02;10.35;;;17.30;62.30;;;12.29;75.21;96031.38;5072112;28;20103;-58
2022/05/07 07:42:23;;;;;;;12.27;10.05;;;17.40;62.10;;;12.26;74.66;96030.03;5072190;28;20039;-57
2022/05/07 07:47:56;;;;;;;11.90;9.30;;;17.40;61.70;;;12.24;73.89;96028.69;5072254;28;20031;-58
2022/05/07 07:50:19;;;;;;;14.50;8.88;;;17.30;61.10;;;12.21;73.38;96030.00;5072419;28;20065;-58
2022/05/07 07:52:44;;;;;;;15.77;9.32;;;17.30;60.90;;;12.11;73.00;96011.31;5070508;28;20463;-58
2022/05/07 07:55:13;;;;;;;11.88;8.75;;;17.30;60.70;;;12.26;73.18;96032.72;5074106;28;20035;-58
2022/05/07 07:57:42;;;;;;;14.48;8.80;;;17.30;60.60;;;12.27;73.48;96023.63;5074101;28;20024;-59
2022/05/07 08:00:12;;;;;;;10.48;8.93;;;17.30;60.70;;;12.31;73.15;96026.56;5055165;28;20052;-58
2022/05/07 08:02:55;;;;;;;12.27;9.52;;;17.30;60.60;;;12.33;73.50;96028.97;5054291;28;20099;-59
2022/05/07 08:05:31;;;;;;;15.07;10.60;;;17.30;60.50;;;12.25;73.75;96027.63;5067987;28;20036;-58
2022/05/07 08:13:30;;;;;;;17.38;12.15;;;17.30;60.70;;;12.10;76.86;96044.41;5075919;28;20111;-54
2022/05/07 08:16:09;;;;;;;16.00;11.80;;;17.20;60.90;;;12.01;76.69;96033.44;5074689;28;20062;-53
2022/05/07 08:18:36;;;;;;;16.75;11.90;;;17.20;61.20;;;11.91;76.94;96030.75;5057691;28;20510;-52
2022/05/07 08:21:12;;;;;;;15.90;11.95;;;17.10;61.20;;;11.92;77.49;96037.69;5080797;28;20032;-52
2022/05/07 08:23:39;;;;;;;14.98;11.77;;;17.00;62.30;;;11.97;76.83;96045.72;5082088;28;20028;-53
2022/05/07 08:26:07;;;;;;;16.35;11.80;;;16.90;61.50;;;11.97;77.09;96036.88;5056174;28;20056;-53
2022/05/07 08:28:34;;;;;;;13.50;11.07;;;16.90;61.70;;;12.01;77.15;96035.31;5047409;28;20028;-51
2022/05/07 08:31:04;;;;;;;19.20;13.40;;;16.90;61.90;;;12.11;76.99;96040.69;5073718;28;20701;-54
2022/05/07 08:33:33;;;;;;;15.45;12.00;;;16.90;62.10;;;12.17;76.84;96039.63;5073889;28;20445;-54
2022/05/07 08:36:03;;;;;;;14.95;11.77;;;16.90;62.10;;;12.27;76.33;96042.31;5056228;28;20040;-55
2022/05/07 08:38:29;;;;;;;13.73;10.60;;;17.10;62.00;;;12.38;75.25;96035.13;5056685;28;20025;-53
2022/05/07 08:40:55;;;;;;;15.07;10.10;;;17.20;61.80;;;12.40;74.08;96038.34;5074178;28;20039;-54
2022/05/07 08:43:21;;;;;;;13.48;10.35;;;17.30;61.40;;;12.43;73.63;96045.03;5056470;28;20025;-55
2022/05/07 08:45:47;;;;;;;20.67;10.88;;;17.40;60.90;;;12.45;72.93;96046.38;5065364;28;20054;-53
2022/05/07 08:48:13;;;;;;;14.48;10.02;;;17.50;60.50;;;12.44;73.02;96044.78;5092268;28;20063;-54
2022/05/07 08:50:40;;;;;;;13.85;9.68;;;17.60;60.20;;;12.46;72.65;96047.16;5087433;28;20387;-53
2022/05/07 08:53:07;;;;;;;13.10;9.63;;;17.70;59.90;;;12.50;73.23;96043.72;5071514;28;20479;-51
2022/05/07 08:55:33;;;;;;;12.23;9.40;;;17.70;59.70;;;12.63;72.62;96037.03;5090690;28;20077;-52
2022/05/07 08:58:00;;;;;;;11.02;9.20;;;17.80;59.50;;;12.70;72.94;96039.44;5070234;28;20083;-54
2022/05/07 09:00:28;;;;;;;11.05;9.20;;;17.90;59.50;;;12.79;72.58;96045.06;5087404;28;20478;-52
2022/05/07 09:03:01;;;;;;;17.80;11.02;;;17.90;59.30;;;12.77;72.75;96037.31;5073140;28;20035;-54
2022/05/07 09:05:37;;;;;;;16.45;12.52;;;18.10;59.20;;;12.80;72.04;96042.13;5084991;28;20110;-53
2022/05/07 09:08:07;;;;;;;15.73;11.75;;;18.20;58.80;;;12.91;71.76;96046.41;5068361;28;20052;-51
2022/05/07 09:10:37;;;;;;;15.88;11.32;;;18.30;58.60;;;12.89;71.83;96039.72;5061805;28;20115;-52
2022/05/07 09:13:17;;;;;;;14.02;11.75;;;18.40;58.20;;;12.91;71.83;96037.56;5074046;28;20024;-50
2022/05/07 09:15:58;;;;;;;17.35;11.88;;;18.60;58.00;;;12.92;71.81;96049.88;5063482;28;20111;-55
2022/05/07 09:18:26;;;;;;;14.85;11.88;;;18.70;57.60;;;13.14;72.69;96045.06;5073258;28;20067;-53
2022/05/07 09:21:16;;;;;;;16.05;11.77;;;18.90;57.60;;;13.28;73.38;96049.88;5072950;28;20024;-56
2022/05/07 09:24:06;;;;;;;17.75;13.57;;;19.20;57.60;;;13.54;73.11;96043.41;5074519;28;20025;-52
2022/05/07 09:26:40;;;;;;;19.17;14.30;;;19.40;57.80;;;13.65;75.08;96046.84;5074498;28;20024;-54
2022/05/07 09:29:14;;;;;;;17.70;14.07;;;19.60;57.80;;;13.51;72.65;96041.28;5073113;28;20033;-57
2022/05/07 09:31:43;;;;;;;16.27;14.15;;;19.80;57.30;;;13.60;74.28;96034.28;5056467;28;20032;-53
2022/05/07 09:37:20;;;;;;;17.50;14.60;;;20.00;56.90;;;13.67;74.66;96042.03;5074366;28;20094;-52
2022/05/07 09:39:51;;;;;;;18.58;14.88;;;20.20;56.80;;;13.65;73.58;96033.47;5072936;28;20028;-56
2022/05/07 09:42:26;;;;;;;18.42;14.93;;;20.20;56.50;;;13.48;74.31;96041.81;5072953;28;20400;-53
2022/05/07 09:44:52;;;;;;;17.88;14.35;;;20.20;56.10;;;13.63;73.89;96041.78;5053241;28;20058;-53
2022/05/07 09:47:18;;;;;;;17.73;14.30;;;20.30;56.00;;;13.75;73.61;96038.78;5056120;28;20085;-53
2022/05/07 09:57:30;;;;;;;20.80;14.93;;;20.30;55.90;;;14.14;72.50;96030.06;5088386;28;20050;-54
2022/05/07 09:58:13;;;;;;;17.33;15.48;;;20.60;55.90;;;14.25;71.24;96034.28;5051349;28;20043;-52
2022/05/07 10:01:28;;;;;;;15.82;13.98;;;20.70;55.50;;;14.51;70.91;96034.97;5094261;28;20048;-57
2022/05/07 10:04:31;;;;;;;18.85;14.90;;;20.90;55.30;;;14.29;71.34;96035.34;5093979;28;20021;-55
2022/05/07 10:07:44;;;;;;;17.58;15.27;;;21.10;54.70;;;14.55;70.42;96030.63;5093669;28;20044;-55
2022/05/07 10:10:37;;;;;;;17.93;15.07;;;21.10;54.50;;;14.75;69.97;96023.53;5068772;28;20086;-55
2022/05/07 10:13:06;;;;;;;18.02;14.30;;;21.30;54.30;;;15.12;69.00;96020.25;5053266;28;20621;-56
2022/05/07 10:15:33;;;;;;;16.45;13.93;;;21.60;54.00;;;15.27;67.31;96013.97;5061477;28;20106;-54
2022/05/07 10:18:04;;;;;;;18.13;14.48;;;22.20;52.90;;;15.62;67.42;96012.78;5093800;28;20103;-53
2022/05/07 10:20:49;;;;;;;19.65;13.38;;;22.70;52.50;;;16.26;65.83;96016.03;5075462;28;20482;-53
2022/05/07 10:23:28;;;;;;;17.35;13.88;;;23.20;52.10;;;16.58;65.61;96011.84;5093492;28;20106;-52
2022/05/07 10:25:58;;;;;;;16.58;14.55;;;23.70;51.20;;;16.90;63.33;95994.16;5060263;28;20035;-50
2022/05/07 10:28:42;;;;;;;17.52;15.27;;;24.30;50.40;;;17.34;63.07;96012.50;5066902;28;20070;-52
2022/05/07 10:31:23;;;;;;;17.45;14.75;;;24.90;49.30;;;17.65;62.52;96017.31;5062245;28;20031;-52
2022/05/07 10:33:51;;;;;;;19.05;15.40;;;25.20;48.80;;;17.80;60.59;96011.66;5077613;28;20082;-50
2022/05/07 10:36:18;;;;;;;20.02;15.73;;;25.40;48.20;;;17.67;60.48;96002.44;5055341;28;20036;-53
2022/05/07 10:38:45;;;;;;;21.92;15.82;;;25.40;47.70;;;17.89;60.40;96009.03;5055410;28;20028;-56
2022/05/07 10:41:24;;;;;;;17.73;15.38;;;25.70;46.80;;;18.46;58.93;95993.28;5044786;28;20020;-55
2022/05/07 10:44:07;;;;;;;16.83;14.95;;;26.20;46.10;;;18.55;58.80;95991.47;5072770;28;20390;-52
2022/05/07 10:46:45;;;;;;;21.00;15.73;;;26.60;45.40;;;18.48;57.76;95991.06;5075136;28;20165;-54
2022/05/07 10:49:11;;;;;;;20.20;15.95;;;26.70;44.50;;;18.55;57.44;95991.47;5074960;28;20036;-51